Houari Boumediene Airport

DAAG · Algiers, Algieria

Historia METAR DAAG · Houari Boumediene Airport

Poniżej widzisz METAR-y z ostatnich kilku dni. Wybierz rok, aby przeglądać starsze METAR-y, począwszy od roku 2007.

2 grudnia 2022

Czas Kod Pogoda Temp. Widoczność Sufit Wiatr METAR/SPECI
13:00
V
18 °C 10 km+ - Var Var 2 kt METAR DAAG 021200Z VRB02KT 9999 FEW020 SCT100 18/04 Q1009
12:30
V
17 °C 10 km+ - 310° 310° 3 kt METAR DAAG 021130Z 31003KT 230V010 9999 FEW020 SCT100 17/05 Q1009
12:00
V
17 °C 10 km+ - Var Var 2 kt METAR DAAG 021100Z VRB02KT 9999 FEW020 SCT100 17/05 Q1010
11:30
V
17 °C 10 km+ - Var Var 2 kt METAR DAAG 021030Z VRB02KT 9999 FEW020 SCT100 17/04 Q1010
11:00
V
15 °C 10 km+ - Var Var 2 kt METAR DAAG 021000Z VRB02KT 9999 FEW020 SCT100 15/06 Q1011
10:30
V
14 °C 10 km+ 10.000 ft 300° 300° 3 kt METAR DAAG 020930Z 30003KT 9999 FEW020 BKN100 14/07 Q1011
10:00
V
14 °C 10 km+ 10.000 ft 150° 150° 3 kt METAR DAAG 020900Z 15003KT 120V180 9999 FEW020 FEW026CB BKN100 14/08 Q1011
09:30
V
12 °C 10 km+ 10.000 ft Var Var 1 kt METAR DAAG 020830Z VRB01KT 9999 FEW020 FEW026CB BKN100 12/08 Q1011
09:00
V
11 °C 10 km+ 10.000 ft 160° 160° 4 kt METAR DAAG 020800Z 16004KT 9999 FEW020 FEW026CB BKN100 11/08 Q1010
08:30
V
11 °C 10 km+ 10.000 ft 150° 150° 4 kt METAR DAAG 020730Z 15004KT 9999 FEW020 FEW026CB BKN100 11/07 Q1010
08:00
V
10 °C 10 km+ 10.000 ft 180° 180° 3 kt METAR DAAG 020700Z 18003KT 9999 FEW020 FEW026CB BKN100 10/07 Q1010
07:30
V
11 °C 10 km+ 10.000 ft 200° 200° 2 kt METAR DAAG 020630Z 20002KT 9999 FEW020 FEW026CB BKN100 11/07 Q1010
07:00
V
13 °C 10 km+ 10.000 ft 130° 130° 3 kt METAR DAAG 020600Z 13003KT 090V160 9999 FEW020 FEW026CB BKN100 13/05 Q1010
06:30
V
13 °C 10 km+ 10.000 ft 130° 130° 4 kt METAR DAAG 020530Z 13004KT 100V160 9999 FEW020 BKN100 13/05 Q1010
06:00
V
12 °C 10 km+ 10.000 ft 100° 100° 4 kt METAR DAAG 020500Z 10004KT 9999 FEW020 BKN100 12/06 Q1010
05:30
V
11 °C 10 km+ 10.000 ft 090° 090° 4 kt METAR DAAG 020430Z 09004KT 9999 FEW020 BKN100 11/06 Q1010
05:00
V
12 °C 10 km+ 10.000 ft 070° 070° 4 kt METAR DAAG 020400Z 07004KT 9999 FEW020 BKN100 12/05 Q1010
04:30
V
12 °C 10 km+ 10.000 ft 100° 100° 4 kt METAR DAAG 020330Z 10004KT 9999 FEW020 BKN100 12/06 Q1010
04:00
V
12 °C 10 km+ 10.000 ft 120° 120° 5 kt METAR DAAG 020300Z 12005KT 9999 FEW023 BKN100 12/06 Q1011
03:30
V
11 °C 10 km+ 10.000 ft 130° 130° 6 kt METAR DAAG 020230Z 13006KT 9999 FEW023 BKN100 11/06 Q1011
03:00
V
11 °C 10 km+ 10.000 ft 140° 140° 6 kt METAR DAAG 020200Z 14006KT 9999 FEW023 BKN100 11/08 Q1011
02:30
V
11 °C 10 km+ 10.000 ft Var Var 2 kt METAR DAAG 020130Z VRB02KT 9999 FEW023 BKN100 11/09 Q1011
02:00
V
10 °C 10 km+ 10.000 ft 210° 210° 3 kt METAR DAAG 020100Z 21003KT 9999 FEW023 BKN100 10/09 Q1011
01:30
V
11 °C 10 km+ 10.000 ft 140° 140° 5 kt METAR DAAG 020030Z 14005KT 9999 FEW023 BKN100 11/09 Q1011
01:00
V
11 °C 10 km+ 10.000 ft 110° 110° 5 kt METAR DAAG 020000Z 11005KT 9999 FEW023 BKN100 11/09 Q1012
00:30
V
11 °C 10 km+ 10.000 ft 110° 110° 5 kt METAR DAAG 012330Z 11005KT 9999 FEW023 BKN100 11/09 Q1012
00:00
V
11 °C 10 km+ 10.000 ft 130° 130° 3 kt METAR DAAG 012300Z 13003KT 9999 FEW023 BKN100 11/09 Q1012

1 grudnia 2022

Czas Kod Pogoda Temp. Widoczność Sufit Wiatr METAR/SPECI
23:30
V
11 °C 10 km+ 10.000 ft Var Var 2 kt METAR DAAG 012230Z VRB02KT 9999 FEW023 BKN100 11/09 Q1012
23:00
V
12 °C 10 km+ 10.000 ft Var Var 2 kt METAR DAAG 012200Z VRB02KT 9999 FEW023 BKN100 12/10 Q1012
22:30
V
12 °C 10 km+ 10.000 ft Var 000° 0 kt METAR DAAG 012130Z 00000KT 9999 FEW023 BKN100 12/10 Q1012
22:00
V
12 °C 10 km+ 10.000 ft Var Var 2 kt METAR DAAG 012100Z VRB02KT 9999 FEW023 BKN100 12/10 Q1012
21:30
V
13 °C 10 km+ 10.000 ft Var Var 2 kt METAR DAAG 012030Z VRB02KT 9999 FEW023 BKN100 13/10 Q1012
21:00
V
13 °C 10 km+ 10.000 ft Var Var 2 kt METAR DAAG 012000Z VRB02KT 9999 FEW023 BKN100 13/10 Q1012
20:30
V
14 °C 10 km+ 10.000 ft 120° 120° 2 kt METAR DAAG 011930Z 12002KT 9999 FEW023 BKN100 14/10 Q1012
20:00
V
14 °C 10 km+ 10.000 ft 100° 100° 3 kt METAR DAAG 011900Z 10003KT 9999 FEW023 BKN100 14/10 Q1012
19:30
V
14 °C 10 km+ 10.000 ft 110° 110° 3 kt METAR DAAG 011830Z 11003KT 9999 FEW023 BKN100 14/10 Q1012
19:00
V
14 °C 10 km+ 10.000 ft Var Var 1 kt METAR DAAG 011800Z VRB01KT 9999 FEW023 BKN100 14/10 Q1012
18:30
V
16 °C 10 km+ 10.000 ft 160° 160° 2 kt METAR DAAG 011730Z 16002KT 9999 FEW023 BKN100 16/09 Q1011
18:00
V
16 °C 10 km+ 10.000 ft 060° 060° 4 kt METAR DAAG 011700Z 06004KT 9999 FEW023 BKN100 16/09 Q1011
17:30
V
16 °C 10 km+ 10.000 ft 050° 050° 6 kt METAR DAAG 011630Z 05006KT 9999 FEW026 BKN100 16/09 Q1011
17:00
V
17 °C 10 km+ 10.000 ft 050° 050° 7 kt METAR DAAG 011600Z 05007KT 9999 FEW026 BKN100 17/09 Q1011
16:30
V
17 °C 10 km+ 20.000 ft 050° 050° 8 kt METAR DAAG 011530Z 05008KT 9999 FEW026 BKN200 17/09 Q1011
16:00
V
17 °C 10 km+ 20.000 ft 050° 050° 10 kt METAR DAAG 011500Z 05010KT 9999 FEW026 BKN200 17/09 Q1011
15:30
V
18 °C 10 km+ 20.000 ft 040° 040° 9 kt METAR DAAG 011430Z 04009KT 9999 FEW026 BKN200 18/09 Q1011
15:00
V
18 °C 10 km+ - 020° 020° 7 kt METAR DAAG 011400Z 02007KT 9999 FEW026 SCT200 18/09 Q1011
14:30
V
19 °C 10 km+ - 010° 010° 8 kt METAR DAAG 011330Z 01008KT 9999 FEW026 SCT100 19/08 Q1011
14:00
V
19 °C 10 km+ - 350° 350° 7 kt METAR DAAG 011300Z 35007KT 9999 FEW026 SCT100 19/07 Q1012
13:30
V
19 °C 10 km+ - Var Var 3 kt METAR DAAG 011230Z VRB03KT 9999 FEW026 SCT100 19/07 Q1012
13:00
V
19 °C 10 km+ - Var Var 3 kt METAR DAAG 011200Z VRB03KT 9999 FEW026 SCT100 19/08 Q1013
12:30
V
19 °C 10 km+ - Var Var 2 kt METAR DAAG 011130Z VRB02KT 9999 FEW023 SCT090 19/06 Q1013
12:00
V
18 °C 10 km+ - Var Var 2 kt METAR DAAG 011100Z VRB02KT 9999 FEW026 SCT090 18/06 Q1014
11:30
V
17 °C 10 km+ - Var Var 2 kt METAR DAAG 011030Z VRB02KT 9999 FEW023 SCT090 17/06 Q1014
11:00
V
17 °C 10 km+ - Var Var 2 kt METAR DAAG 011000Z VRB02KT 9999 FEW026 SCT090 17/07 Q1014
10:30
V
15 °C 10 km+ 9.000 ft 350° 350° 3 kt METAR DAAG 010930Z 35003KT 300V030 9999 FEW023 BKN090 15/09 Q1014
10:00
V
12 °C 10 km+ 9.000 ft Var Var 2 kt METAR DAAG 010900Z VRB02KT 9999 FEW023 BKN090 12/10 Q1014
09:30
V
11 °C 10 km+ 9.000 ft Var Var 1 kt METAR DAAG 010830Z VRB01KT 9999 FEW023 BKN090 11/10 Q1014
09:00
M
9 °C 7 km 7.000 ft 190° 190° 2 kt METAR DAAG 010800Z 19002KT 7000 FEW023 BKN070 09/08 Q1014
08:30
M
7 °C 7 km 7.000 ft Var 000° 0 kt METAR DAAG 010730Z 00000KT 7000 FEW023 BKN070 07/07 Q1014
08:00
M
7 °C 7 km 8.000 ft Var Var 2 kt METAR DAAG 010700Z VRB02KT 7000 FEW023 BKN080 07/07 Q1014
07:30
V
7 °C 9 km 8.000 ft Var Var 2 kt METAR DAAG 010630Z VRB02KT 9000 FEW023 BKN080 07/06 Q1014
07:00
V
7 °C 10 km+ - 070° 070° 5 kt METAR DAAG 010600Z 07005KT 9999 FEW023 SCT080 07/06 Q1014

30 listopada 2022

Czas Kod Pogoda Temp. Widoczność Sufit Wiatr METAR/SPECI
17:00
V
17 °C 10 km+ - 180° 180° 2 kt METAR DAAG 301600Z 18002KT 9999 FEW023TCU 17/07 Q1016
16:30
V
18 °C 10 km+ - Var Var 2 kt METAR DAAG 301530Z VRB02KT 9999 FEW023TCU SCT080 18/06 Q1016
16:00
V
17 °C 10 km+ - 260° 260° 3 kt METAR DAAG 301500Z 26003KT 210V310 9999 FEW023TCU SCT080 17/09 Q1016
15:30
V
17 °C 10 km+ - 250° 250° 4 kt METAR DAAG 301430Z 25004KT 220V300 9999 FEW023TCU SCT080 17/09 Q1016
15:00
V
16 °C 10 km+ - 220° 220° 4 kt METAR DAAG 301400Z 22004KT 190V270 9999 FEW023TCU SCT080 16/10 Q1016
14:30
V
16 °C 10 km+ - 240° 240° 6 kt METAR DAAG 301330Z 24006KT 210V280 9999 FEW023TCU SCT080 16/11 Q1016
14:00
V
15 °C 10 km+ - 230° 230° 7 kt METAR DAAG 301300Z 23007KT 190V250 9999 FEW023TCU FEW026CB SCT080 15/10 Q1017
13:30
V
15 °C 10 km+ - 230° 230° 9 kt METAR DAAG 301230Z 23009KT 200V260 9999 FEW023TCU FEW026CB SCT080 15/11 Q1017
13:00
V
15 °C 10 km+ - 240° 240° 10 kt METAR DAAG 301200Z 24010KT 9999 FEW023TCU FEW026CB SCT080 15/11 Q1018
12:30
V
15 °C 10 km+ - 240° 240° 10 kt METAR DAAG 301130Z 24010KT 9999 FEW023TCU FEW026CB SCT080 15/11 Q1018
12:00
V
15 °C 10 km+ - 240° 240° 8 kt METAR DAAG 301100Z 24008KT 9999 FEW023TCU FEW026CB SCT080 15/10 Q1018
11:30
V
14 °C 10 km+ - 230° 230° 8 kt METAR DAAG 301030Z 23008KT 200V260 9999 SCT023TCU FEW026CB SCT080 14/11 Q1018
11:00
V
13 °C 10 km+ - 220° 220° 6 kt METAR DAAG 301000Z 22006KT 180V240 9999 SCT023TCU FEW026CB SCT080 13/10 Q1018

My i strony trzecie śledzimy Twoje zachowanie internetowe na naszej stronie za pomocą plików cookie. Jeśli kontynuujesz, zakładamy, że zgadzasz się z naszymi polityka plików cookie.